createdAt,value
2022-12-24T00:00:55.477Z,100480.0
2022-12-24T00:05:55.442Z,100500.0
2022-12-24T00:10:55.450Z,100510.0
2022-12-24T00:15:55.467Z,100500.0
2022-12-24T00:20:55.474Z,100520.0
2022-12-24T00:25:55.491Z,100520.0
2022-12-24T00:30:55.523Z,100530.0
2022-12-24T00:35:55.511Z,100540.0
2022-12-24T00:40:55.522Z,100540.0
2022-12-24T00:45:55.583Z,100550.0
2022-12-24T00:50:55.578Z,100560.0
2022-12-24T00:55:55.563Z,100560.0
2022-12-24T01:00:55.575Z,100570.0
2022-12-24T01:05:55.590Z,100580.0
2022-12-24T01:10:55.609Z,100580.0
2022-12-24T01:15:55.665Z,100590.0
2022-12-24T01:20:55.629Z,100600.0
2022-12-24T01:25:55.641Z,100590.0
2022-12-24T01:30:55.696Z,100610.0
2022-12-24T01:35:55.679Z,100610.0
2022-12-24T01:40:55.673Z,100610.0
2022-12-24T01:45:55.739Z,100630.0
2022-12-24T01:50:55.711Z,100630.0
2022-12-24T01:55:55.729Z,100630.0
2022-12-24T02:00:55.736Z,100630.0
2022-12-24T02:10:55.761Z,100660.0
2022-12-24T02:15:55.836Z,100670.0
2022-12-24T02:20:55.779Z,100670.0
2022-12-24T02:25:55.798Z,100670.0
2022-12-24T02:30:55.905Z,100670.0
2022-12-24T02:35:55.828Z,100670.0
2022-12-24T02:40:55.851Z,100670.0
2022-12-24T02:45:59.155Z,100680.0
2022-12-24T02:50:55.873Z,100680.0
2022-12-24T02:55:55.891Z,100680.0
2022-12-24T03:00:56.061Z,100680.0
2022-12-24T03:05:55.903Z,100680.0
2022-12-24T03:10:55.915Z,100680.0
2022-12-24T03:15:56.288Z,100670.0
2022-12-24T03:20:55.947Z,100680.0
2022-12-24T03:25:55.969Z,100680.0
2022-12-24T03:30:55.976Z,100690.0
2022-12-24T03:35:56.030Z,100680.0
2022-12-24T03:40:55.994Z,100700.0
2022-12-24T03:45:56.103Z,100700.0
2022-12-24T03:50:56.020Z,100710.0
2022-12-24T03:55:56.082Z,100700.0
2022-12-24T04:00:56.125Z,100710.0
2022-12-24T04:05:56.049Z,100720.0
2022-12-24T04:10:56.072Z,100710.0
2022-12-24T04:15:56.086Z,100710.0
2022-12-24T04:20:56.098Z,100730.0
2022-12-24T04:25:56.108Z,100730.0
2022-12-24T04:30:56.139Z,100740.0
2022-12-24T04:35:56.129Z,100730.0
2022-12-24T04:40:56.156Z,100730.0
2022-12-24T04:45:56.208Z,100730.0
2022-12-24T04:50:56.208Z,100740.0
2022-12-24T04:55:56.295Z,100740.0
2022-12-24T05:00:56.298Z,100750.0
2022-12-24T05:06:01.315Z,100750.0
2022-12-24T05:10:56.223Z,100760.0
2022-12-24T05:15:56.250Z,100760.0
2022-12-24T05:20:56.252Z,100750.0
2022-12-24T05:25:56.275Z,100760.0
2022-12-24T05:30:56.299Z,100770.0
2022-12-24T05:35:56.301Z,100760.0
2022-12-24T05:40:56.308Z,100760.0
2022-12-24T05:45:56.370Z,100760.0
2022-12-24T05:50:56.334Z,100760.0
2022-12-24T05:55:56.346Z,100780.0
2022-12-24T06:00:56.372Z,100780.0
2022-12-24T06:05:56.367Z,100790.0
2022-12-24T06:10:56.380Z,100800.0
2022-12-24T06:15:56.437Z,100790.0
2022-12-24T06:20:56.408Z,100800.0
2022-12-24T06:25:56.441Z,100810.0
2022-12-24T06:31:02.344Z,100810.0
2022-12-24T06:35:56.447Z,100820.0
2022-12-24T06:40:56.465Z,100820.0
2022-12-24T06:45:56.472Z,100830.0
2022-12-24T06:50:56.482Z,100830.0
2022-12-24T06:55:56.497Z,100840.0
2022-12-24T07:00:56.540Z,100840.0
2022-12-24T07:05:56.526Z,100830.0
2022-12-24T07:10:56.540Z,100840.0
2022-12-24T07:15:56.592Z,100850.0
2022-12-24T07:20:56.566Z,100850.0
2022-12-24T07:25:56.582Z,100860.0
2022-12-24T07:30:56.697Z,100860.0
2022-12-24T07:35:56.612Z,100860.0
2022-12-24T07:40:56.624Z,100890.0
2022-12-24T07:45:56.633Z,100900.0
2022-12-24T07:50:56.690Z,100910.0
2022-12-24T07:55:56.674Z,100910.0
2022-12-24T08:00:56.665Z,100930.0
2022-12-24T08:05:56.690Z,100930.0
2022-12-24T08:10:56.694Z,100960.0
2022-12-24T08:15:56.725Z,100960.0
2022-12-24T08:20:56.718Z,100980.0
2022-12-24T08:25:56.741Z,100980.0
2022-12-24T08:30:56.780Z,100990.0
2022-12-24T08:35:56.764Z,100990.0
2022-12-24T08:40:56.778Z,100990.0
2022-12-24T08:45:56.861Z,100990.0
2022-12-24T08:50:56.802Z,101000.0
2022-12-24T08:55:56.815Z,101000.0
2022-12-24T09:00:56.963Z,101010.0
2022-12-24T09:05:56.863Z,101010.0
2022-12-24T09:10:56.855Z,101020.0
2022-12-24T09:15:56.884Z,101030.0
2022-12-24T09:20:57.388Z,101030.0
2022-12-24T09:25:56.891Z,101040.0
2022-12-24T09:30:56.916Z,101060.0
2022-12-24T09:35:56.918Z,101070.0
2022-12-24T09:40:56.943Z,101070.0
2022-12-24T09:45:57.026Z,101070.0
2022-12-24T09:50:56.991Z,101090.0
2022-12-24T09:55:56.969Z,101080.0
2022-12-24T10:00:57.022Z,101080.0
2022-12-24T10:05:56.994Z,101090.0
2022-12-24T10:10:57.010Z,101110.0
2022-12-24T10:15:57.060Z,101100.0
2022-12-24T10:20:57.079Z,101110.0
2022-12-24T10:25:57.052Z,101120.0
2022-12-24T10:30:57.190Z,101110.0
2022-12-24T10:35:57.072Z,101110.0
2022-12-24T10:40:57.086Z,101100.0
2022-12-24T10:45:57.145Z,101100.0
2022-12-24T10:50:57.109Z,101100.0
2022-12-24T10:55:57.132Z,101100.0
2022-12-24T11:00:57.166Z,101120.0
2022-12-24T11:05:57.150Z,101110.0
2022-12-24T11:10:57.165Z,101110.0
2022-12-24T11:15:57.220Z,101120.0
2022-12-24T11:20:57.191Z,101110.0
2022-12-24T11:25:57.216Z,101120.0
2022-12-24T11:30:57.294Z,101110.0
2022-12-24T11:35:57.230Z,101120.0
2022-12-24T11:40:57.268Z,101120.0
2022-12-24T11:55:57.288Z,101140.0
2022-12-24T12:00:57.414Z,101130.0
2022-12-24T12:05:57.315Z,101130.0
2022-12-24T12:10:57.328Z,101130.0
2022-12-24T12:15:57.428Z,101140.0
2022-12-24T12:20:57.352Z,101150.0
2022-12-24T12:25:57.380Z,101140.0
2022-12-24T12:30:57.458Z,101140.0
2022-12-24T12:35:57.397Z,101160.0
2022-12-24T12:40:57.416Z,101150.0
2022-12-24T12:45:57.453Z,101160.0
2022-12-24T12:50:57.438Z,101170.0
2022-12-24T12:55:57.476Z,101170.0
2022-12-24T13:00:57.517Z,101170.0
2022-12-24T13:05:57.466Z,101170.0
2022-12-24T13:10:57.477Z,101180.0
2022-12-24T13:15:57.641Z,101190.0
2022-12-24T13:20:57.508Z,101190.0
2022-12-24T13:25:57.520Z,101190.0
2022-12-24T13:30:57.644Z,101210.0
2022-12-24T13:35:57.548Z,101200.0
2022-12-24T13:40:57.576Z,101200.0
2022-12-24T13:45:57.649Z,101210.0
2022-12-24T13:50:57.575Z,101210.0
2022-12-24T13:55:57.597Z,101200.0
2022-12-24T14:00:57.682Z,101210.0
2022-12-24T14:05:57.621Z,101220.0
2022-12-24T14:10:57.651Z,101220.0
2022-12-24T14:15:57.726Z,101240.0
2022-12-24T14:20:57.668Z,101250.0
2022-12-24T14:25:57.678Z,101250.0
2022-12-24T14:30:57.685Z,101250.0
2022-12-24T14:35:57.697Z,101260.0
2022-12-24T14:40:57.713Z,101260.0
2022-12-24T14:45:57.796Z,101250.0
2022-12-24T14:50:57.741Z,101260.0
2022-12-24T14:55:57.749Z,101270.0
2022-12-24T15:00:57.856Z,101280.0
2022-12-24T15:05:57.794Z,101280.0
2022-12-24T15:10:57.790Z,101280.0
2022-12-24T15:15:57.805Z,101300.0
2022-12-24T15:21:03.489Z,101300.0
2022-12-24T15:25:57.843Z,101300.0
2022-12-24T15:30:57.901Z,101300.0
2022-12-24T15:35:57.864Z,101320.0
2022-12-24T15:40:57.876Z,101320.0
2022-12-24T15:45:57.976Z,101320.0
2022-12-24T15:50:57.904Z,101320.0
2022-12-24T15:55:57.913Z,101320.0
2022-12-24T16:00:57.955Z,101330.0
2022-12-24T16:05:57.942Z,101330.0
2022-12-24T16:10:57.942Z,101340.0
2022-12-24T16:15:58.037Z,101340.0
2022-12-24T16:20:58.026Z,101340.0
2022-12-24T16:25:57.993Z,101340.0
2022-12-24T16:30:58.073Z,101340.0
2022-12-24T16:35:58.020Z,101340.0
2022-12-24T16:40:58.064Z,101350.0
2022-12-24T16:45:58.077Z,101360.0
2022-12-24T16:50:58.052Z,101350.0
2022-12-24T16:55:58.065Z,101350.0
2022-12-24T17:00:58.083Z,101360.0
2022-12-24T17:05:58.099Z,101360.0
2022-12-24T17:10:58.113Z,101350.0
2022-12-24T17:15:58.178Z,101350.0
2022-12-24T17:20:58.130Z,101340.0
2022-12-24T17:25:58.197Z,101350.0
2022-12-24T17:30:58.213Z,101360.0
2022-12-24T17:35:58.180Z,101360.0
2022-12-24T17:40:58.180Z,101360.0
2022-12-24T17:45:58.222Z,101370.0
2022-12-24T17:50:58.233Z,101370.0
2022-12-24T17:55:58.228Z,101360.0
2022-12-24T18:00:58.242Z,101360.0
2022-12-24T18:05:58.305Z,101360.0
2022-12-24T18:10:58.261Z,101370.0
2022-12-24T18:15:58.315Z,101370.0
2022-12-24T18:20:58.286Z,101370.0
2022-12-24T18:25:58.297Z,101370.0
2022-12-24T18:30:58.337Z,101370.0
2022-12-24T18:35:58.320Z,101370.0
2022-12-24T18:40:58.344Z,101360.0
2022-12-24T18:45:58.348Z,101360.0
2022-12-24T18:50:58.373Z,101350.0
2022-12-24T18:55:58.375Z,101350.0
2022-12-24T19:00:58.455Z,101350.0
2022-12-24T19:05:58.407Z,101350.0
2022-12-24T19:10:58.418Z,101360.0
2022-12-24T19:15:58.457Z,101360.0
2022-12-24T19:20:58.441Z,101360.0
2022-12-24T19:25:58.460Z,101360.0
2022-12-24T19:30:58.470Z,101360.0
2022-12-24T19:35:58.484Z,101370.0
2022-12-24T19:40:58.496Z,101370.0
2022-12-24T19:45:58.589Z,101370.0
2022-12-24T19:50:58.521Z,101360.0
2022-12-24T19:55:58.533Z,101360.0
2022-12-24T20:00:58.622Z,101370.0
2022-12-24T20:05:58.570Z,101370.0
2022-12-24T20:10:58.589Z,101380.0
2022-12-24T20:15:58.814Z,101390.0
2022-12-24T20:20:58.602Z,101390.0
2022-12-24T20:25:58.620Z,101400.0
2022-12-24T20:30:58.629Z,101390.0
2022-12-24T20:35:58.639Z,101400.0
2022-12-24T20:40:58.650Z,101410.0
2022-12-24T20:45:58.709Z,101420.0
2022-12-24T20:50:58.684Z,101420.0
2022-12-24T20:55:58.686Z,101400.0
2022-12-24T21:00:58.765Z,101390.0
2022-12-24T21:05:58.715Z,101370.0
2022-12-24T21:10:58.731Z,101390.0
2022-12-24T21:15:58.737Z,101380.0
2022-12-24T21:20:58.756Z,101380.0
2022-12-24T21:25:58.768Z,101370.0
2022-12-24T21:30:58.841Z,101380.0
2022-12-24T21:35:58.792Z,101360.0
2022-12-24T21:40:58.819Z,101360.0
2022-12-24T21:45:58.895Z,101340.0
2022-12-24T21:50:58.838Z,101310.0
2022-12-24T21:55:58.860Z,101320.0
2022-12-24T22:00:58.887Z,101330.0
2022-12-24T22:05:58.886Z,101330.0
2022-12-24T22:10:58.887Z,101320.0
2022-12-24T22:15:58.915Z,101330.0
2022-12-24T22:20:58.913Z,101340.0
2022-12-24T22:25:58.924Z,101340.0
2022-12-24T22:30:59.066Z,101330.0
2022-12-24T22:35:58.947Z,101330.0
2022-12-24T22:40:59.068Z,101340.0
2022-12-24T22:45:59.035Z,101330.0
2022-12-24T22:50:59.012Z,101330.0
2022-12-24T22:55:59.001Z,101330.0
2022-12-24T23:00:59.022Z,101330.0
2022-12-24T23:05:59.030Z,101320.0
2022-12-24T23:10:59.065Z,101340.0
2022-12-24T23:15:59.159Z,101330.0
2022-12-24T23:20:59.068Z,101360.0
2022-12-24T23:25:59.088Z,101360.0
2022-12-24T23:30:59.237Z,101370.0
2022-12-24T23:35:59.111Z,101370.0
2022-12-24T23:40:59.145Z,101370.0
2022-12-24T23:45:59.242Z,101370.0
2022-12-24T23:50:59.145Z,101360.0
2022-12-24T23:55:59.183Z,101350.0
